createdAt,value
2018-12-09T00:00:27.496Z,0.73
2018-12-09T00:03:04.395Z,0.40
2018-12-09T00:05:48.063Z,0.57
2018-12-09T00:08:31.306Z,0.50
2018-12-09T00:11:12.438Z,0.60
2018-12-09T00:13:43.942Z,0.50
2018-12-09T00:16:17.936Z,0.50
2018-12-09T00:18:55.563Z,0.60
2018-12-09T00:21:26.237Z,0.70
2018-12-09T00:23:59.438Z,0.50
2018-12-09T00:26:38.363Z,0.50
2018-12-09T00:29:13.694Z,0.40
2018-12-09T00:31:44.296Z,0.80
2018-12-09T00:34:17.606Z,0.40
2018-12-09T00:36:52.552Z,0.57
2018-12-09T00:39:25.326Z,0.50
2018-12-09T00:41:57.614Z,0.60
2018-12-09T00:44:30.839Z,0.40
2018-12-09T00:47:12.689Z,0.70
2018-12-09T00:49:42.987Z,0.60
2018-12-09T00:52:24.798Z,0.80
2018-12-09T00:54:59.827Z,0.60
2018-12-09T00:57:38.978Z,0.50
2018-12-09T01:00:12.355Z,0.43
2018-12-09T01:02:45.254Z,0.50
2018-12-09T01:05:27.046Z,0.43
2018-12-09T01:08:04.688Z,0.50
2018-12-09T01:10:44.261Z,0.43
2018-12-09T01:13:19.206Z,0.70
2018-12-09T01:15:56.436Z,0.50
2018-12-09T01:18:29.088Z,0.53
2018-12-09T01:21:00.066Z,0.40
2018-12-09T01:23:30.724Z,0.60
2018-12-09T01:26:03.952Z,0.67
2018-12-09T01:28:34.494Z,0.33
2018-12-09T01:31:07.452Z,0.90
2018-12-09T01:33:38.611Z,0.50
2018-12-09T01:36:13.628Z,0.67
2018-12-09T01:38:51.548Z,0.50
2018-12-09T01:41:22.396Z,0.50
2018-12-09T01:43:55.496Z,0.70
2018-12-09T01:46:31.346Z,0.53
2018-12-09T01:49:04.241Z,0.60
2018-12-09T01:51:37.394Z,0.43
2018-12-09T01:54:13.945Z,0.60
2018-12-09T01:56:50.202Z,0.50
2018-12-09T01:59:21.046Z,0.67
2018-12-09T02:01:59.515Z,0.40
2018-12-09T02:04:31.024Z,0.50
2018-12-09T02:07:11.168Z,0.50
2018-12-09T02:09:45.942Z,0.47
2018-12-09T02:12:24.888Z,0.60
2018-12-09T02:14:57.709Z,0.40
2018-12-09T02:17:33.451Z,0.40
2018-12-09T02:20:04.280Z,0.40
2018-12-09T02:22:37.428Z,0.40
2018-12-09T02:25:09.162Z,0.50
2018-12-09T02:27:50.415Z,0.50
2018-12-09T02:30:25.358Z,0.50
2018-12-09T02:32:56.208Z,0.43
2018-12-09T02:35:31.700Z,0.60
2018-12-09T02:38:10.947Z,0.63
2018-12-09T02:40:43.413Z,0.47
2018-12-09T02:43:16.679Z,0.80
2018-12-09T02:45:54.319Z,0.40
2018-12-09T02:48:26.834Z,0.50
2018-12-09T02:51:05.516Z,0.70
2018-12-09T02:53:38.048Z,0.50
2018-12-09T02:56:08.313Z,0.40
2018-12-09T02:58:41.496Z,0.77
2018-12-09T03:01:14.554Z,0.63
2018-12-09T03:03:44.797Z,0.60
2018-12-09T03:06:20.371Z,0.70
2018-12-09T03:08:59.566Z,0.40
2018-12-09T03:11:34.508Z,0.70
2018-12-09T03:14:07.284Z,0.50
2018-12-09T03:16:40.672Z,0.63
2018-12-09T03:19:14.045Z,0.60
2018-12-09T03:21:49.459Z,0.53
2018-12-09T03:24:22.078Z,0.50
2018-12-09T03:27:04.036Z,0.50
2018-12-09T03:29:37.036Z,0.60
2018-12-09T03:32:11.680Z,0.50
2018-12-09T03:34:45.069Z,0.50
2018-12-09T03:37:20.726Z,0.60
2018-12-09T03:40:02.058Z,0.60
2018-12-09T03:42:37.740Z,0.60
2018-12-09T03:45:10.879Z,0.67
2018-12-09T03:47:43.693Z,0.40
2018-12-09T03:50:27.454Z,0.70
2018-12-09T03:53:04.617Z,0.50
2018-12-09T03:55:45.967Z,0.60
2018-12-09T03:58:19.173Z,0.50
2018-12-09T04:00:52.682Z,0.70
2018-12-09T04:03:25.615Z,0.80
2018-12-09T04:06:01.225Z,0.60
2018-12-09T04:08:42.644Z,0.70
2018-12-09T04:11:23.829Z,0.60
2018-12-09T04:13:58.685Z,0.47
2018-12-09T04:16:40.119Z,0.60
2018-12-09T04:19:15.256Z,0.43
2018-12-09T04:21:48.755Z,0.87
2018-12-09T04:24:22.094Z,0.60
2018-12-09T04:26:53.412Z,0.70
2018-12-09T04:29:29.043Z,0.57
2018-12-09T04:32:01.504Z,0.63
2018-12-09T04:34:33.925Z,0.40
2018-12-09T04:37:07.241Z,1.10
2018-12-09T04:39:37.565Z,0.63
2018-12-09T04:42:08.710Z,0.77
2018-12-09T04:44:41.927Z,0.90
2018-12-09T04:47:23.795Z,0.70
2018-12-09T04:50:01.574Z,0.70
2018-12-09T04:52:32.081Z,0.73
2018-12-09T04:55:05.434Z,0.80
2018-12-09T04:57:41.177Z,0.53
2018-12-09T05:00:19.154Z,1.17
2018-12-09T05:02:54.334Z,0.80
2018-12-09T05:05:26.877Z,0.57
2018-12-09T05:08:04.563Z,0.50
2018-12-09T05:10:37.114Z,0.60
2018-12-09T05:13:10.884Z,0.67
2018-12-09T05:15:52.356Z,0.80
2018-12-09T05:18:25.407Z,0.80
2018-12-09T05:20:58.197Z,0.83
2018-12-09T05:23:29.359Z,0.80
2018-12-09T05:26:06.982Z,0.80
2018-12-09T05:28:42.177Z,0.67
2018-12-09T05:31:14.880Z,0.97
2018-12-09T05:33:45.557Z,0.80
2018-12-09T05:36:18.992Z,0.60
2018-12-09T05:38:49.279Z,0.90
2018-12-09T05:41:22.601Z,0.57
2018-12-09T05:43:53.765Z,0.70
2018-12-09T05:46:24.982Z,0.80
2018-12-09T05:48:56.371Z,0.63
2018-12-09T05:51:28.641Z,0.60
2018-12-09T05:54:01.927Z,0.73
2018-12-09T05:56:35.346Z,1.13
2018-12-09T05:59:08.379Z,0.80
2018-12-09T06:01:41.670Z,0.70
2018-12-09T06:04:12.179Z,0.60
2018-12-09T06:06:51.610Z,0.60
2018-12-09T06:09:26.604Z,0.67
2018-12-09T06:12:11.987Z,0.40
2018-12-09T06:14:44.324Z,0.60
2018-12-09T06:17:14.458Z,0.80
2018-12-09T06:19:50.126Z,0.77
2018-12-09T06:22:29.060Z,1.33
2018-12-09T06:25:01.891Z,0.50
2018-12-09T06:27:32.676Z,0.80
2018-12-09T06:30:13.804Z,0.77
2018-12-09T06:32:46.384Z,0.40
2018-12-09T06:35:19.492Z,0.90
2018-12-09T06:37:55.019Z,0.87
2018-12-09T06:40:27.841Z,0.50
2018-12-09T06:42:59.109Z,1.00
2018-12-09T06:45:34.778Z,1.03
2018-12-09T06:48:05.184Z,0.90
2018-12-09T06:50:36.192Z,1.00
2018-12-09T06:53:09.535Z,0.80
2018-12-09T06:55:42.808Z,1.00
2018-12-09T06:58:15.777Z,0.80
2018-12-09T07:00:49.141Z,0.60
2018-12-09T07:03:25.671Z,0.80
2018-12-09T07:05:58.193Z,1.37
2018-12-09T07:08:33.904Z,0.73
2018-12-09T07:11:19.344Z,0.83
2018-12-09T07:13:55.420Z,0.60
2018-12-09T07:16:31.235Z,0.60
2018-12-09T07:19:03.898Z,0.63
2018-12-09T07:21:37.080Z,0.70
2018-12-09T07:24:10.296Z,1.03
2018-12-09T07:26:43.992Z,0.57
2018-12-09T07:29:17.047Z,1.30
2018-12-09T07:31:52.505Z,0.87
2018-12-09T07:34:27.915Z,1.00
2018-12-09T07:37:01.655Z,0.70
2018-12-09T07:39:35.101Z,0.47
2018-12-09T07:42:08.374Z,0.67
2018-12-09T07:44:41.726Z,0.73
2018-12-09T07:47:17.621Z,0.77
2018-12-09T07:49:55.321Z,0.60
2018-12-09T07:52:30.483Z,0.57
2018-12-09T07:55:05.565Z,1.10
2018-12-09T07:57:40.750Z,0.63
2018-12-09T08:00:19.663Z,1.00
2018-12-09T08:02:52.891Z,1.03
2018-12-09T08:05:28.170Z,0.60
2018-12-09T08:07:59.050Z,1.17
2018-12-09T08:10:34.636Z,1.20
2018-12-09T08:13:08.601Z,0.80
2018-12-09T08:15:51.116Z,0.73
2018-12-09T08:18:22.060Z,0.90
2018-12-09T08:21:06.681Z,0.87
2018-12-09T08:23:39.675Z,1.30
2018-12-09T08:26:16.105Z,0.80
2018-12-09T08:28:51.477Z,0.70
2018-12-09T08:31:25.482Z,1.00
2018-12-09T08:33:58.943Z,0.90
2018-12-09T08:36:33.764Z,0.60
2018-12-09T08:39:06.285Z,0.87
2018-12-09T08:41:42.031Z,1.00
2018-12-09T08:44:14.814Z,0.80
2018-12-09T08:46:55.802Z,1.13
2018-12-09T08:49:37.020Z,1.30
2018-12-09T08:52:09.738Z,0.97
2018-12-09T08:54:43.424Z,1.60
2018-12-09T08:57:13.953Z,1.60
2018-12-09T08:59:49.729Z,1.43
2018-12-09T09:02:22.433Z,1.80
2018-12-09T09:04:55.833Z,1.13
2018-12-09T09:07:31.542Z,1.30
2018-12-09T09:10:10.583Z,1.13
2018-12-09T09:12:41.382Z,1.00
2018-12-09T09:15:16.474Z,1.17
2018-12-09T09:17:49.281Z,0.97
2018-12-09T09:20:26.622Z,1.60
2018-12-09T09:22:59.670Z,1.00
2018-12-09T09:25:35.312Z,0.87
2018-12-09T09:28:16.847Z,1.07
2018-12-09T09:30:58.075Z,0.97
2018-12-09T09:33:30.588Z,1.30
2018-12-09T09:36:12.411Z,1.00
2018-12-09T09:38:51.418Z,1.10
2018-12-09T09:41:30.386Z,1.10
2018-12-09T09:44:03.788Z,0.80
2018-12-09T09:46:39.041Z,0.90
2018-12-09T09:49:20.474Z,1.03
2018-12-09T09:51:59.491Z,0.90
2018-12-09T09:54:32.344Z,1.00
2018-12-09T09:57:05.485Z,0.87
2018-12-09T09:59:40.434Z,1.13
2018-12-09T10:02:11.373Z,1.07
2018-12-09T10:04:45.659Z,1.37
2018-12-09T10:07:21.343Z,0.90
2018-12-09T10:09:52.094Z,0.90
2018-12-09T10:12:25.972Z,0.70
2018-12-09T10:15:07.832Z,1.20
2018-12-09T10:17:48.981Z,1.43
2018-12-09T10:20:24.899Z,1.87
2018-12-09T10:23:00.672Z,1.23
2018-12-09T10:25:45.955Z,1.13
2018-12-09T10:28:19.575Z,1.03
2018-12-09T10:30:52.678Z,0.90
2018-12-09T10:33:26.530Z,1.60
2018-12-09T10:36:01.550Z,1.33
2018-12-09T10:38:42.919Z,1.30
2018-12-09T10:41:24.795Z,0.73
2018-12-09T10:43:58.151Z,1.40
2018-12-09T10:46:40.232Z,1.27
2018-12-09T10:49:22.313Z,1.60
2018-12-09T10:51:55.677Z,0.93
2018-12-09T10:54:28.113Z,1.10
2018-12-09T10:57:09.911Z,1.73
2018-12-09T10:59:51.799Z,1.23
2018-12-09T11:02:22.321Z,1.13
2018-12-09T11:04:55.794Z,1.10
2018-12-09T11:07:37.083Z,0.70
2018-12-09T11:10:09.088Z,1.63
2018-12-09T11:12:39.467Z,1.20
2018-12-09T11:15:11.783Z,1.27
2018-12-09T11:21:18.761Z,1.93
2018-12-09T11:23:53.890Z,1.70
2018-12-09T11:26:39.082Z,2.53
2018-12-09T11:29:17.689Z,1.73
2018-12-09T11:31:52.662Z,2.83
2018-12-09T11:34:31.874Z,3.60
2018-12-09T11:37:04.678Z,1.97
2018-12-09T11:39:39.746Z,1.60
2018-12-09T11:42:12.306Z,1.93
2018-12-09T11:44:46.683Z,1.63
2018-12-09T11:47:24.079Z,1.17
2018-12-09T11:49:54.727Z,1.60
2018-12-09T11:52:27.350Z,1.27
2018-12-09T11:55:06.038Z,0.90
2018-12-09T11:57:47.606Z,1.40
2018-12-09T12:00:20.376Z,1.70
2018-12-09T12:02:53.045Z,1.60
2018-12-09T12:08:22.556Z,1.20
2018-12-09T12:10:54.418Z,1.77
2018-12-09T12:13:32.669Z,1.47
2018-12-09T12:16:13.314Z,1.40
2018-12-09T12:18:48.344Z,1.20
2018-12-09T12:21:25.652Z,2.37
2018-12-09T12:23:59.551Z,1.40
2018-12-09T12:26:41.779Z,1.70
2018-12-09T12:29:29.890Z,1.90
2018-12-09T12:32:05.295Z,1.37
2018-12-09T12:34:44.816Z,1.70
2018-12-09T12:37:16.645Z,2.57
2018-12-09T12:39:48.818Z,1.30
2018-12-09T12:42:21.737Z,1.90
2018-12-09T12:44:53.777Z,2.30
2018-12-09T12:47:34.790Z,1.47
2018-12-09T12:50:07.025Z,1.23
2018-12-09T12:52:46.045Z,1.40
2018-12-09T12:55:27.594Z,1.13
2018-12-09T12:58:10.055Z,1.03
2018-12-09T13:00:45.953Z,1.00
2018-12-09T13:03:18.222Z,1.57
2018-12-09T13:06:00.095Z,1.17
2018-12-09T13:08:35.059Z,1.77
2018-12-09T13:11:09.744Z,2.10
2018-12-09T13:13:44.929Z,1.50
2018-12-09T13:16:17.692Z,1.60
2018-12-09T13:18:55.030Z,1.60
2018-12-09T13:21:28.066Z,1.90
2018-12-09T13:31:46.653Z,1.37
2018-12-09T13:34:34.030Z,2.13
2018-12-09T13:37:06.582Z,1.43
2018-12-09T13:39:47.726Z,2.03
2018-12-09T13:42:32.991Z,1.30
2018-12-09T13:45:29.909Z,2.13
2018-12-09T13:48:16.353Z,1.50
2018-12-09T13:50:57.041Z,2.10
2018-12-09T13:53:33.340Z,2.20
2018-12-09T13:56:16.950Z,1.93
2018-12-09T13:58:56.547Z,1.77
2018-12-09T14:01:29.812Z,2.13
2018-12-09T14:04:04.742Z,2.10
2018-12-09T14:06:54.342Z,0.93
2018-12-09T14:09:32.031Z,1.20
2018-12-09T14:12:07.390Z,1.37
2018-12-09T14:14:39.777Z,1.50
2018-12-09T14:17:12.895Z,1.83
2018-12-09T14:22:54.222Z,1.80
2018-12-09T14:25:25.329Z,1.37
